This is the latest recevied weather packets stored in our database for station/object KA3BQE-13. If no packets are shown the sender has not sent any weather packets the latest 10 day(s).
| Time | Temp. | Humidity | Pressure | Rain* | Wind** | Luminosity | Snow |
|---|---|---|---|---|---|---|---|
| 1777058004 | 20° C | 74% | 1009.8 hPa | 0 mm | - | 455 W/m² | - |
| 1777057700 | 20° C | 75% | 1009.9 hPa | 0 mm | - | 414 W/m² | - |
| 1777057395 | 20° C | 76% | 1009.8 hPa | 0 mm | - | 457 W/m² | - |
| 1777057091 | 19.44° C | 78% | 1009.8 hPa | 0 mm | - | 388 W/m² | - |
| 1777056786 | 18.89° C | 79% | 1009.9 hPa | 0 mm | - | 341 W/m² | - |
| 1777056481 | 18.89° C | 78% | 1009.8 hPa | 0 mm | - | 266 W/m² | - |
| 1777056176 | 18.89° C | 79% | 1009.8 hPa | 0 mm | - | 289 W/m² | - |
| 1777055873 | 19.44° C | 79% | 1009.8 hPa | 0 mm | - | 245 W/m² | - |
| 1777055570 | 19.44° C | 78% | 1009.8 hPa | 0 mm | - | 540 W/m² | - |
| 1777055269 | 18.89° C | 80% | 1010 hPa | 0 mm | - | 428 W/m² | - |
| 1777054969 | 18.89° C | 80% | 1009.9 hPa | 0 mm | - | 723 W/m² | - |
| 1777054665 | 18.33° C | 83% | 1009.6 hPa | 0 mm | - | 783 W/m² | - |
| 1777054362 | 18.33° C | 83% | 1009.9 hPa | 0 mm | - | 316 W/m² | - |
| 1777054061 | 17.78° C | 84% | 1009.9 hPa | 0 mm | - | 259 W/m² | - |
| 1777053761 | 17.78° C | 85% | 1010 hPa | 0 mm | - | 239 W/m² | - |
| 1777053460 | 17.22° C | 86% | 1009.9 hPa | 0 mm | - | 175 W/m² | - |
| 1777053156 | 17.22° C | 88% | 1009.9 hPa | 0 mm | - | 99 W/m² | - |
| 1777052852 | 17.22° C | 89% | 1010 hPa | 0 mm | - | 100 W/m² | - |
| 1777052547 | 17.22° C | 87% | 1009.9 hPa | 0 mm | - | 113 W/m² | - |
| 1777052244 | 17.78° C | 88% | 1009.9 hPa | 0 mm | - | 253 W/m² | - |
| 1777051939 | 17.78° C | 90% | 1009.7 hPa | 0 mm | - | 202 W/m² | - |
* Rain latest hour (hover to see other rain measurements)
** Current wind speed in m/s (hover to see current wind gust speed)